Time;durP1;ratioP1;P1;durP2;ratioP2;P2;SDS_P1;SDS_P2;PMS_P1;PMS_P2;Temp;Humidity;BMP_temperature;BMP_pressure;BME280_temperature;BME280_humidity;BME280_pressure;Samples;Min_cycle;Max_cycle;Signal;HPM_P1;HPM_P2
2022/05/03 00:01:56;;;;;;;21.45;12.23;;;;;;;8.78;47.18;100313.44;1645627;86;21855;-65
2022/05/03 00:04:29;;;;;;;23.73;13.25;;;;;;;8.77;47.24;100317.88;1674647;85;21012;-65
2022/05/03 00:07:22;;;;;;;19.42;12.13;;;;;;;8.77;47.24;100315.72;1683796;84;21028;-66
2022/05/03 00:10:09;;;;;;;24.18;12.55;;;;;;;8.76;47.39;100314.03;1631067;86;20996;-66
2022/05/03 00:12:44;;;;;;;23.20;13.90;;;;;;;8.76;47.47;100317.98;1628179;86;21036;-65
2022/05/03 00:15:11;;;;;;;23.00;12.55;;;;;;;8.76;47.61;100319.30;1673626;84;22051;-66
2022/05/03 00:17:38;;;;;;;20.60;12.47;;;;;;;8.73;47.65;100311.16;1642061;84;21132;-65
2022/05/03 00:20:06;;;;;;;19.92;12.90;;;;;;;8.75;47.69;100314.52;1653007;85;21107;-66
2022/05/03 00:22:34;;;;;;;25.57;13.25;;;;;;;8.76;47.78;100313.56;1662073;84;21060;-67
2022/05/03 00:25:01;;;;;;;23.60;12.80;;;;;;;8.78;47.84;100314.76;1642114;85;21032;-65
2022/05/03 00:27:28;;;;;;;21.40;12.45;;;;;;;8.77;47.95;100309.97;1657479;84;21816;-66
2022/05/03 00:29:57;;;;;;;23.12;13.38;;;;;;;8.73;48.11;100309.00;1643901;85;21167;-66
2022/05/03 00:32:28;;;;;;;25.80;13.40;;;;;;;8.72;48.32;100312.59;1639980;86;21060;-65
2022/05/03 00:34:57;;;;;;;24.92;13.88;;;;;;;8.70;48.62;100304.81;1631329;86;21582;-66
2022/05/03 00:37:24;;;;;;;22.37;12.68;;;;;;;8.69;48.80;100312.34;1632434;85;21162;-66
2022/05/03 00:39:51;;;;;;;21.23;12.45;;;;;;;8.67;49.03;100306.80;1654900;84;22974;-66
2022/05/03 00:42:43;;;;;;;18.32;11.22;;;;;;;8.67;49.30;100306.80;1639330;86;21646;-66
2022/05/03 00:45:45;;;;;;;25.82;11.53;;;;;;;8.67;49.44;100306.33;1639762;86;21052;-66
2022/05/03 00:49:08;;;;;;;21.60;11.28;;;;;;;8.65;49.58;100300.34;1619863;86;21158;-66
2022/05/03 00:52:07;;;;;;;17.87;11.22;;;;;;;8.64;49.71;100294.71;1616179;87;21618;-66
2022/05/03 00:54:52;;;;;;;20.60;11.70;;;;;;;8.62;49.80;100287.88;1636719;86;21889;-65
2022/05/03 00:57:42;;;;;;;;;;;;;;;8.62;49.84;100290.52;1652258;86;21085;-65
2022/05/03 01:00:15;;;;;;;18.95;10.03;;;;;;;8.62;49.91;100291.36;1628599;86;20208;-66
2022/05/03 01:03:08;;;;;;;15.15;9.85;;;;;;;8.58;50.08;100288.08;1652885;85;21459;-65
2022/05/03 01:05:59;;;;;;;15.63;9.55;;;;;;;8.58;50.23;100292.51;1650174;86;21033;-66
2022/05/03 01:08:57;;;;;;;15.85;9.48;;;;;;;8.54;50.40;100285.32;1618287;86;21941;-66
2022/05/03 01:12:07;;;;;;;14.03;8.63;;;;;;;8.53;50.58;100290.23;1631656;86;21107;-65
2022/05/03 01:14:49;;;;;;;15.85;7.50;;;;;;;8.52;50.94;100295.13;1636768;86;21558;-64
2022/05/03 01:17:49;;;;;;;11.38;6.53;;;;;;;8.50;51.29;100288.30;1637473;84;21536;-66
2022/05/03 01:20:24;;;;;;;14.80;7.15;;;;;;;8.47;51.55;100297.23;1630751;87;21120;-65
2022/05/03 01:23:11;;;;;;;11.75;6.80;;;;;;;8.47;51.84;100285.87;1628817;86;21871;-67
2022/05/03 01:26:28;;;;;;;11.20;6.05;;;;;;;8.46;51.99;100291.61;1652282;86;21089;-65
2022/05/03 01:29:14;;;;;;;13.90;6.03;;;;;;;8.45;52.10;100288.61;1673678;84;21441;-67
2022/05/03 01:31:42;;;;;;;10.85;6.15;;;;;;;8.45;52.19;100284.67;1682953;84;21111;-65
2022/05/03 01:34:12;;;;;;;11.75;5.47;;;;;;;8.46;52.22;100286.83;1673360;84;21045;-65
2022/05/03 01:37:13;;;;;;;10.80;5.85;;;;;;;8.46;52.31;100283.71;1646741;86;21818;-65
2022/05/03 01:39:51;;;;;;;9.90;5.62;;;;;;;8.45;52.32;100280.72;1632672;85;21431;-66
2022/05/03 01:43:02;;;;;;;8.23;5.83;;;;;;;8.44;52.33;100272.94;1635574;86;21443;-65
2022/05/03 01:45:55;;;;;;;11.75;6.17;;;;;;;8.45;52.28;100271.51;1626454;87;21462;-65
2022/05/03 01:51:55;;;;;;;9.83;5.47;;;;;;;8.45;52.26;100268.88;1646895;85;21877;-65
2022/05/03 01:54:45;;;;;;;17.92;6.90;;;;;;;8.44;52.24;100266.36;1644938;86;21402;-68
2022/05/03 01:57:42;;;;;;;10.25;6.10;;;;;;;8.43;52.25;100262.05;1638325;85;21004;-66
2022/05/03 02:00:10;;;;;;;12.93;6.30;;;;;;;8.42;52.29;100265.16;1618022;87;21076;-66
2022/05/03 02:03:25;;;;;;;11.57;6.92;;;;;;;8.41;52.25;100263.48;1621365;87;21607;-65
2022/05/03 02:06:10;;;;;;;14.50;6.45;;;;;;;8.40;52.24;100259.17;1609776;86;21838;-65
2022/05/03 02:08:48;;;;;;;9.88;6.40;;;;;;;8.38;52.27;100257.58;1637041;86;21026;-66
2022/05/03 02:11:41;;;;;;;9.48;6.12;;;;;;;8.35;52.27;100258.65;1629013;87;21099;-65
2022/05/03 02:17:29;;;;;;;12.40;5.87;;;;;;;8.29;52.31;100260.36;1677198;84;21255;-65
2022/05/03 02:20:42;;;;;;;9.55;5.78;;;;;;;8.25;52.41;100263.70;1633155;87;22536;-64
2022/05/03 02:23:32;;;;;;;11.45;5.90;;;;;;;8.24;52.51;100262.50;1643087;85;21093;-65
2022/05/03 02:26:08;;;;;;;9.58;5.60;;;;;;;8.21;53.00;100261.41;1652295;86;20989;-65
2022/05/03 02:28:43;;;;;;;9.70;6.10;;;;;;;8.16;53.36;100266.14;1660993;84;21084;-65
2022/05/03 02:31:30;;;;;;;12.07;6.00;;;;;;;8.12;53.44;100264.69;1650685;86;21021;-64
2022/05/03 02:34:23;;;;;;;12.33;6.08;;;;;;;8.13;53.48;100271.16;1628152;86;22611;-66
2022/05/03 02:37:20;;;;;;;9.10;6.03;;;;;;;8.12;53.39;100269.48;1648822;85;21099;-65
2022/05/03 02:40:08;;;;;;;10.10;5.62;;;;;;;8.12;53.33;100275.22;1633293;86;21299;-66
2022/05/03 02:42:36;;;;;;;10.90;5.97;;;;;;;8.11;53.29;100276.17;1632931;86;21071;-66
2022/05/03 02:45:04;;;;;;;10.50;6.37;;;;;;;8.09;53.29;100276.72;1651299;86;20974;-66
2022/05/03 02:48:08;;;;;;;11.03;5.28;;;;;;;8.07;53.36;100279.47;1659153;84;21966;-67
2022/05/03 02:50:54;;;;;;;11.83;6.00;;;;;;;8.06;53.45;100279.11;1618869;87;20994;-66
2022/05/03 02:53:47;;;;;;;10.48;5.72;;;;;;;8.05;53.48;100281.37;1610991;87;21594;-66
2022/05/03 02:56:43;;;;;;;8.53;5.97;;;;;;;8.03;53.60;100280.17;1642657;86;21182;-66
2022/05/03 03:02:41;;;;;;;14.23;6.53;;;;;;;8.03;53.74;100282.80;1628472;85;21987;-65
2022/05/03 03:05:09;;;;;;;10.82;6.87;;;;;;;8.01;53.88;100286.02;1637722;85;21036;-66
2022/05/03 03:07:46;;;;;;;11.33;6.20;;;;;;;8.00;54.09;100280.36;1632871;85;21056;-66
2022/05/03 03:10:22;;;;;;;8.68;5.92;;;;;;;8.00;54.16;100282.16;1613672;87;21028;-66
2022/05/03 03:13:26;;;;;;;13.85;6.40;;;;;;;8.04;54.09;100283.64;1638218;85;21322;-65
2022/05/03 03:15:54;;;;;;;8.10;6.00;;;;;;;8.05;54.09;100287.95;1657084;85;22367;-66
2022/05/03 03:18:24;;;;;;;8.45;6.15;;;;;;;8.09;54.22;100283.30;1663612;84;21091;-66
2022/05/03 03:20:51;;;;;;;9.53;5.95;;;;;;;8.10;54.26;100287.61;1661133;85;21097;-66
2022/05/03 03:23:20;;;;;;;13.80;6.22;;;;;;;8.11;54.29;100282.74;1653399;85;21538;-66
2022/05/03 03:25:47;;;;;;;10.90;6.10;;;;;;;8.11;54.33;100283.58;1647837;86;21044;-65
2022/05/03 03:28:17;;;;;;;9.33;6.45;;;;;;;8.12;54.40;100291.00;1636187;86;21985;-67
2022/05/03 03:30:44;;;;;;;10.63;6.10;;;;;;;8.14;54.49;100296.98;1614204;87;21005;-66
2022/05/03 03:33:11;;;;;;;7.95;6.00;;;;;;;8.14;54.59;100290.41;1626538;86;21001;-66
2022/05/03 03:35:38;;;;;;;12.05;6.70;;;;;;;8.13;54.72;100295.30;1646031;85;20993;-66
2022/05/03 03:38:07;;;;;;;9.08;6.00;;;;;;;8.15;54.80;100294.72;1625627;85;21041;-68
2022/05/03 03:40:33;;;;;;;10.18;6.08;;;;;;;8.15;54.88;100296.88;1654831;86;21959;-65
2022/05/03 03:43:00;;;;;;;11.18;6.12;;;;;;;8.19;55.00;100290.91;1652123;85;21195;-65
2022/05/03 03:45:27;;;;;;;10.43;6.10;;;;;;;8.19;55.11;100300.95;1640096;86;21088;-65
2022/05/03 03:47:53;;;;;;;9.95;5.95;;;;;;;8.21;55.50;100306.98;1594642;87;21104;-66
2022/05/03 03:50:20;;;;;;;9.70;5.67;;;;;;;8.22;55.71;100297.29;1606223;87;21174;-66
2022/05/03 03:52:47;;;;;;;7.28;5.47;;;;;;;8.26;55.90;100303.53;1607314;87;21892;-65
2022/05/03 03:55:14;;;;;;;10.90;5.92;;;;;;;8.29;56.18;100301.14;1641419;85;21048;-65
2022/05/03 03:57:42;;;;;;;8.03;5.10;;;;;;;8.31;56.34;100298.80;1619196;86;20996;-65
2022/05/03 04:00:15;;;;;;;9.73;5.65;;;;;;;8.38;56.56;100295.27;1640461;87;21420;-65
2022/05/03 04:02:45;;;;;;;9.13;5.50;;;;;;;8.44;56.65;100294.84;1650571;86;20989;-65
2022/05/03 04:05:21;;;;;;;11.35;5.60;;;;;;;8.50;56.81;100290.45;1605398;85;22515;-65
2022/05/03 04:07:48;;;;;;;9.78;4.75;;;;;;;8.57;56.90;100295.63;1672969;84;21067;-65
2022/05/03 04:10:15;;;;;;;9.30;4.78;;;;;;;8.65;57.04;100297.70;1686625;84;21071;-65
2022/05/03 04:12:42;;;;;;;10.15;5.00;;;;;;;8.74;57.08;100295.72;1650776;85;21038;-65
2022/05/03 04:15:10;;;;;;;12.60;4.70;;;;;;;8.84;57.20;100295.89;1632752;86;21004;-66
2022/05/03 04:17:38;;;;;;;7.78;4.60;;;;;;;8.95;57.36;100295.09;1648078;84;21852;-65
2022/05/03 04:20:07;;;;;;;8.40;4.45;;;;;;;9.09;57.47;100295.77;1629481;87;21092;-65
2022/05/03 04:22:34;;;;;;;7.40;4.40;;;;;;;9.23;57.29;100300.00;1614520;86;21056;-65
2022/05/03 04:25:04;;;;;;;8.78;4.92;;;;;;;9.36;57.07;100288.04;1643321;86;20990;-65
2022/05/03 04:27:31;;;;;;;7.75;4.60;;;;;;;9.51;57.03;100289.52;1621099;87;20985;-66
2022/05/03 04:29:58;;;;;;;5.97;4.42;;;;;;;9.63;56.85;100295.17;1629246;86;21742;-65
2022/05/03 04:32:29;;;;;;;8.63;4.60;;;;;;;9.75;56.70;100294.73;1600317;87;21068;-65
2022/05/03 04:34:56;;;;;;;10.80;4.35;;;;;;;9.87;56.56;100295.09;1649759;86;21535;-66
2022/05/03 04:37:23;;;;;;;7.05;3.85;;;;;;;10.00;56.31;100300.24;1653651;85;21671;-67
2022/05/03 04:39:50;;;;;;;12.25;3.80;;;;;;;10.11;55.91;100299.40;1656954;85;21114;-66
2022/05/03 04:42:17;;;;;;;7.85;3.70;;;;;;;10.21;55.52;100307.79;1641781;85;22474;-66
2022/05/03 04:44:44;;;;;;;5.55;3.92;;;;;;;10.30;55.41;100301.81;1635053;86;21012;-66
2022/05/03 04:47:10;;;;;;;8.48;3.92;;;;;;;10.39;55.17;100302.89;1633980;86;21542;-66
2022/05/03 04:49:37;;;;;;;6.92;3.72;;;;;;;10.48;54.91;100302.64;1654760;84;21452;-66
2022/05/03 04:52:05;;;;;;;6.00;3.70;;;;;;;10.56;54.78;100304.19;1605785;89;21052;-66
2022/05/03 04:54:32;;;;;;;8.20;4.08;;;;;;;10.65;54.45;100302.13;1594238;86;22483;-67
2022/05/03 04:57:01;;;;;;;8.63;3.80;;;;;;;10.74;54.37;100293.94;1648243;86;20882;-68
2022/05/03 04:59:28;;;;;;;6.40;3.65;;;;;;;10.84;54.21;100294.38;1642911;86;21061;-67
2022/05/03 05:01:55;;;;;;;5.75;3.67;;;;;;;10.93;54.16;100287.99;1666160;85;21554;-67
2022/05/03 05:04:21;;;;;;;8.55;3.83;;;;;;;11.01;53.93;100294.33;1655284;84;21451;-65
2022/05/03 05:06:48;;;;;;;5.47;3.40;;;;;;;11.08;53.63;100292.83;1630064;86;21843;-66
2022/05/03 05:09:15;;;;;;;9.28;3.27;;;;;;;11.16;53.35;100297.01;1637216;86;21032;-67
2022/05/03 05:11:42;;;;;;;7.95;3.80;;;;;;;11.25;53.28;100289.28;1659196;84;21095;-67
2022/05/03 05:14:08;;;;;;;5.00;3.60;;;;;;;11.34;53.24;100287.19;1664262;84;21372;-66
2022/05/03 05:16:36;;;;;;;11.63;3.83;;;;;;;11.44;53.31;100284.13;1651911;86;21118;-66
2022/05/03 05:19:03;;;;;;;5.95;3.37;;;;;;;11.55;53.11;100283.21;1662959;86;22557;-66
2022/05/03 05:21:31;;;;;;;6.03;3.30;;;;;;;11.64;53.30;100279.30;1616013;87;21008;-65
2022/05/03 05:23:57;;;;;;;5.80;3.70;;;;;;;11.76;53.16;100286.18;1633661;86;21032;-66
2022/05/03 05:26:23;;;;;;;6.03;3.30;;;;;;;11.89;53.32;100288.66;1615318;87;20997;-67
2022/05/03 05:28:50;;;;;;;7.05;3.50;;;;;;;12.03;52.74;100280.84;1640962;86;21009;-67
2022/05/03 05:31:17;;;;;;;5.25;3.40;;;;;;;12.16;52.57;100283.25;1638748;85;22014;-67
2022/05/03 05:33:43;;;;;;;6.12;3.60;;;;;;;12.29;52.60;100275.92;1626544;84;21081;-66
2022/05/03 05:36:10;;;;;;;8.38;3.22;;;;;;;12.43;52.08;100277.34;1624949;86;21092;-66
2022/05/03 05:38:37;;;;;;;6.53;3.27;;;;;;;12.56;51.83;100280.10;1641430;86;21021;-66
2022/05/03 05:41:13;;;;;;;7.10;3.10;;;;;;;12.70;51.23;100274.05;1632694;87;20997;-67
2022/05/03 05:43:42;;;;;;;10.20;3.40;;;;;;;12.82;50.96;100270.28;1602199;87;22516;-68
2022/05/03 05:46:09;;;;;;;5.90;3.30;;;;;;;12.96;50.75;100265.07;1637839;86;20976;-69
2022/05/03 05:48:39;;;;;;;6.37;2.95;;;;;;;13.10;50.57;100268.13;1649206;86;21034;-68
2022/05/03 05:51:06;;;;;;;7.33;2.90;;;;;;;13.25;50.09;100263.27;1649911;85;21061;-66
2022/05/03 05:53:33;;;;;;;6.87;3.20;;;;;;;13.38;49.79;100265.61;1669530;85;21000;-66
2022/05/03 05:56:04;;;;;;;6.70;3.05;;;;;;;13.51;49.10;100267.49;1636490;85;21727;-68
2022/05/03 05:58:31;;;;;;;9.08;2.83;;;;;;;13.63;48.91;100272.97;1652671;84;21183;-68
2022/05/03 06:00:57;;;;;;;7.67;3.05;;;;;;;13.73;48.77;100264.48;1626175;85;21119;-68
2022/05/03 06:03:25;;;;;;;4.00;3.00;;;;;;;13.86;48.82;100268.63;1621850;84;21208;-68
2022/05/03 06:05:52;;;;;;;5.50;3.20;;;;;;;13.99;48.58;100254.52;1652570;84;21072;-72
2022/05/03 06:08:18;;;;;;;5.90;3.00;;;;;;;14.13;48.46;100263.84;1627231;85;21880;-68
2022/05/03 06:10:45;;;;;;;7.90;2.87;;;;;;;14.30;48.50;100263.89;1654954;84;21073;-69
2022/05/03 06:13:13;;;;;;;5.42;2.70;;;;;;;14.51;47.66;100264.14;1655096;84;21029;-69
2022/05/03 06:15:40;;;;;;;5.83;3.72;;;;;;;14.68;47.75;100251.38;1635264;84;21059;-69
2022/05/03 06:18:08;;;;;;;7.00;3.05;;;;;;;14.89;47.35;100251.06;1649047;86;21462;-67
2022/05/03 06:20:36;;;;;;;6.80;2.95;;;;;;;15.10;46.86;100248.92;1640737;86;22484;-68
2022/05/03 06:23:04;;;;;;;5.30;2.80;;;;;;;15.35;47.02;100248.62;1652427;86;21060;-68
2022/05/03 06:25:31;;;;;;;6.40;2.77;;;;;;;15.58;45.78;100249.42;1626685;86;21149;-70
2022/05/03 06:27:58;;;;;;;5.92;2.70;;;;;;;15.69;45.46;100244.70;1646788;86;21111;-68
2022/05/03 06:30:24;;;;;;;6.67;3.05;;;;;;;15.76;45.33;100242.25;1636515;86;21042;-68
2022/05/03 06:32:51;;;;;;;6.35;2.72;;;;;;;15.81;45.21;100242.59;1632044;85;22594;-68
2022/05/03 06:35:19;;;;;;;6.62;2.62;;;;;;;15.90;45.33;100238.14;1637481;86;21562;-67
2022/05/03 06:37:46;;;;;;;5.90;2.90;;;;;;;15.96;44.82;100241.51;1635139;87;21178;-66
2022/05/03 06:40:13;;;;;;;8.08;2.70;;;;;;;15.99;44.48;100242.02;1650307;85;21268;-67
2022/05/03 06:42:41;;;;;;;5.40;2.52;;;;;;;15.97;44.06;100241.34;1648779;85;21127;-67
2022/05/03 06:45:10;;;;;;;6.22;2.40;;;;;;;15.99;43.88;100239.34;1616002;85;21996;-69
2022/05/03 06:47:36;;;;;;;10.35;2.70;;;;;;;15.99;44.00;100237.19;1649456;86;21044;-66
2022/05/03 06:50:04;;;;;;;5.20;2.47;;;;;;;16.00;44.41;100238.35;1649028;86;21060;-69
2022/05/03 06:52:32;;;;;;;4.85;2.40;;;;;;;16.05;43.85;100235.22;1647196;86;21070;-67
2022/05/03 06:54:58;;;;;;;5.00;2.47;;;;;;;16.11;43.35;100235.89;1655899;85;21036;-67
2022/05/03 06:57:28;;;;;;;3.92;2.02;;;;;;;16.24;43.03;100235.46;1655778;84;21947;-67
2022/05/03 06:59:54;;;;;;;6.62;2.27;;;;;;;16.40;43.18;100234.16;1632301;86;21028;-67
2022/05/03 07:02:21;;;;;;;6.80;2.70;;;;;;;16.60;43.48;100228.89;1619057;86;21029;-68
2022/05/03 07:04:49;;;;;;;4.78;2.60;;;;;;;16.85;42.95;100231.61;1647363;86;21495;-67
2022/05/03 07:07:16;;;;;;;5.53;2.50;;;;;;;17.05;42.08;100228.94;1639926;86;21127;-66
2022/05/03 07:09:42;;;;;;;4.87;2.17;;;;;;;17.20;41.70;100227.78;1647701;86;22636;-67
2022/05/03 07:12:10;;;;;;;6.92;2.40;;;;;;;17.37;42.29;100227.23;1660751;85;21098;-69
2022/05/03 07:14:37;;;;;;;3.77;2.20;;;;;;;17.58;41.19;100228.06;1642411;85;21047;-68
2022/05/03 07:17:05;;;;;;;4.70;2.25;;;;;;;17.71;40.81;100234.55;1649306;86;21087;-67
2022/05/03 07:25:02;;;;;;;5.35;1.70;;;;;;;18.15;39.06;100223.88;1660427;84;21609;-68
2022/05/03 07:27:28;;;;;;;3.45;1.90;;;;;;;18.25;37.73;100228.01;1655014;84;21447;-69
2022/05/03 07:29:56;;;;;;;4.67;2.10;;;;;;;18.26;37.55;100228.84;1656517;84;21044;-68
2022/05/03 07:32:22;;;;;;;5.22;1.92;;;;;;;18.22;38.09;100228.33;1631234;85;21385;-66
2022/05/03 07:34:49;;;;;;;3.45;2.00;;;;;;;18.20;37.48;100233.53;1630301;87;22832;-67
2022/05/03 07:37:16;;;;;;;6.20;1.80;;;;;;;18.16;37.69;100223.70;1623541;87;21064;-66
2022/05/03 07:39:42;;;;;;;10.23;2.35;;;;;;;18.15;38.28;100223.88;1634694;87;21513;-67
2022/05/03 07:42:09;;;;;;;6.92;2.27;;;;;;;18.15;38.41;100227.39;1633530;87;21678;-66
2022/05/03 07:44:36;;;;;;;5.33;2.37;;;;;;;18.14;37.57;100218.19;1651097;86;21701;-69
2022/05/03 07:47:03;;;;;;;6.50;2.10;;;;;;;18.19;37.86;100219.34;1635419;86;21947;-66
2022/05/03 07:49:30;;;;;;;14.53;10.40;;;;;;;18.28;37.91;100216.95;1645643;86;21077;-68
2022/05/03 07:51:56;;;;;;;5.58;2.25;;;;;;;18.42;37.63;100214.02;1660122;85;21188;-65
2022/05/03 07:54:23;;;;;;;4.58;1.85;;;;;;;18.56;37.75;100215.95;1656064;84;21112;-68
2022/05/03 07:56:49;;;;;;;4.03;2.02;;;;;;;18.70;36.45;100215.70;1652499;84;21102;-67
2022/05/03 07:59:18;;;;;;;6.20;2.00;;;;;;;18.79;35.09;100211.97;1655099;86;21977;-65
2022/05/03 08:01:45;;;;;;;5.65;2.02;;;;;;;18.86;35.72;100207.56;1650637;86;21071;-65
2022/05/03 08:04:12;;;;;;;3.25;1.92;;;;;;;18.90;35.23;100203.19;1650635;85;21103;-66
2022/05/03 08:06:41;;;;;;;3.75;1.98;;;;;;;18.94;34.27;100205.84;1660226;83;21032;-67
2022/05/03 08:09:13;;;;;;;11.30;1.80;;;;;;;18.97;34.96;100199.62;1662442;84;21609;-66
2022/05/03 08:11:40;;;;;;;1.98;1.50;;;;;;;19.04;33.39;100193.05;1646878;84;21848;-68
2022/05/03 08:14:08;;;;;;;5.33;1.80;;;;;;;19.06;33.06;100194.52;1635191;84;21102;-68
2022/05/03 08:16:38;;;;;;;2.95;1.70;;;;;;;19.07;32.56;100187.31;1642673;84;21075;-67
2022/05/03 08:19:05;;;;;;;4.55;1.57;;;;;;;19.10;32.71;100187.78;1649974;86;21629;-66
2022/05/03 08:21:33;;;;;;;2.72;1.40;;;;;;;19.24;32.09;100192.02;1652227;84;21106;-67
2022/05/03 08:23:59;;;;;;;6.83;1.30;;;;;;;19.31;30.70;100185.77;1656130;85;21943;-68
2022/05/03 08:26:33;;;;;;;6.83;1.40;;;;;;;19.32;30.37;100190.09;1658768;84;21461;-70
2022/05/03 08:29:01;;;;;;;6.97;1.50;;;;;;;19.36;29.76;100181.17;1621639;85;21100;-69
2022/05/03 08:31:34;;;;;;;4.62;1.20;;;;;;;19.44;29.39;100185.12;1650474;84;21056;-68
2022/05/03 08:34:06;;;;;;;2.30;1.27;;;;;;;19.50;28.19;100176.86;1662035;85;21533;-69
2022/05/03 08:36:30;;;;;;;2.05;1.20;;;;;;;19.41;27.29;100178.28;1644965;84;21912;-68
2022/05/03 08:44:32;;;;;;;4.10;1.70;;;;;;;19.19;26.96;100169.80;1669811;85;21071;-67
2022/05/03 08:47:00;;;;;;;6.87;1.32;;;;;;;19.22;27.08;100168.11;1652919;85;21125;-67
2022/05/03 08:49:38;;;;;;;3.85;1.30;;;;;;;19.30;26.96;100161.81;1649572;85;21940;-67
2022/05/03 08:52:06;;;;;;;2.55;1.27;;;;;;;19.46;28.59;100157.62;1643335;84;21523;-68
2022/05/03 08:54:36;;;;;;;2.08;1.27;;;;;;;19.77;28.04;100149.92;1654827;84;21511;-68
2022/05/03 08:57:06;;;;;;;2.80;1.35;;;;;;;19.96;27.73;100150.69;1583571;89;21071;-68
2022/05/03 08:59:38;;;;;;;3.55;2.12;;;;;;;20.10;27.96;100145.81;1616283;85;21202;-68
2022/05/03 09:02:09;;;;;;;8.05;2.50;;;;;;;20.31;32.01;100146.34;1632769;84;21860;-70
2022/05/03 09:04:38;;;;;;;6.78;3.50;;;;;;;20.53;34.85;100147.20;1622620;87;21076;-68
2022/05/03 09:07:22;;;;;;;8.90;2.77;;;;;;;20.72;34.86;100145.73;1643474;86;21079;-68
2022/05/03 09:09:50;;;;;;;4.78;2.70;;;;;;;20.67;35.66;100139.61;1639764;84;21321;-69
2022/05/03 09:12:30;;;;;;;9.65;3.37;;;;;;;20.67;36.24;100142.30;1647416;86;21111;-70
2022/05/03 09:14:59;;;;;;;8.08;3.00;;;;;;;20.61;35.51;100141.71;1628498;84;21656;-70
2022/05/03 09:17:43;;;;;;;7.95;2.92;;;;;;;20.52;34.93;100131.62;1646840;84;21087;-71
2022/05/03 09:26:23;;;;;;;4.90;2.40;;;;;;;21.00;33.08;100126.45;1640371;86;21614;-67
2022/05/03 09:29:14;;;;;;;4.65;2.40;;;;;;;21.25;33.32;100125.48;1620410;86;22004;-66
2022/05/03 09:31:47;;;;;;;6.67;2.45;;;;;;;21.50;33.27;100129.88;1628350;86;21095;-67
2022/05/03 09:34:23;;;;;;;6.08;2.50;;;;;;;21.26;33.50;100124.49;1653631;85;21115;-68
2022/05/03 09:37:02;;;;;;;6.83;2.60;;;;;;;21.02;34.12;100122.22;1643375;86;21450;-70
2022/05/03 09:39:31;;;;;;;3.25;2.27;;;;;;;21.13;35.50;100120.33;1648770;86;21131;-69
2022/05/03 09:42:18;;;;;;;7.53;2.25;;;;;;;21.36;33.77;100120.94;1640207;86;21864;-68
2022/05/03 09:44:57;;;;;;;7.72;2.60;;;;;;;21.47;33.36;100107.97;1623868;87;21167;-68
2022/05/03 09:47:26;;;;;;;3.65;2.17;;;;;;;21.57;34.19;100105.74;1639614;85;21135;-70
2022/05/03 09:49:53;;;;;;;2.85;2.20;;;;;;;21.66;33.93;100109.41;1646009;86;21136;-69
2022/05/03 09:52:29;;;;;;;3.55;2.30;;;;;;;21.70;33.65;100109.82;1614020;86;21040;-70
2022/05/03 09:55:07;;;;;;;6.37;2.30;;;;;;;21.64;33.81;100111.98;1618592;86;22585;-68
2022/05/03 09:57:43;;;;;;;5.62;2.55;;;;;;;21.47;33.66;100103.42;1624093;86;21041;-69
2022/05/03 10:00:12;;;;;;;4.30;2.45;;;;;;;21.29;33.94;100101.25;1627055;86;21060;-67
2022/05/03 10:02:44;;;;;;;8.48;2.80;;;;;;;21.06;34.18;100098.82;1623367;86;21005;-68
2022/05/03 10:05:12;;;;;;;4.17;2.65;;;;;;;20.78;34.92;100092.63;1654708;85;21012;-69
2022/05/03 10:07:47;;;;;;;7.92;2.22;;;;;;;20.72;35.16;100083.48;1672503;84;21254;-70
2022/05/03 10:10:12;;;;;;;5.42;2.20;;;;;;;20.94;35.55;100085.63;1647632;84;21091;-75
2022/05/03 10:12:39;;;;;;;6.17;2.30;;;;;;;21.30;34.89;100084.11;1632050;84;21052;-72
2022/05/03 10:15:07;;;;;;;4.92;2.27;;;;;;;21.50;33.43;100075.31;1651783;86;21087;-72
2022/05/03 10:20:45;;;;;;;7.17;2.00;;;;;;;21.95;33.29;100067.93;1649703;84;21586;-72
2022/05/03 10:23:24;;;;;;;6.12;2.40;;;;;;;22.37;31.33;100061.91;1636690;85;21001;-71
2022/05/03 10:26:05;;;;;;;9.08;2.30;;;;;;;22.61;30.84;100059.14;1651744;84;21079;-72
2022/05/03 10:29:03;;;;;;;5.65;2.10;;;;;;;22.63;30.55;100062.45;1652170;84;21120;-73
2022/05/03 10:31:31;;;;;;;4.15;2.37;;;;;;;22.49;30.24;100057.59;1641019;86;21467;-72
2022/05/03 10:34:02;;;;;;;3.37;2.10;;;;;;;22.30;29.97;100064.31;1637044;86;21946;-72
2022/05/03 10:36:42;;;;;;;7.35;2.00;;;;;;;22.25;31.33;100057.67;1649747;86;21107;-71
2022/05/03 10:39:22;;;;;;;3.67;1.92;;;;;;;22.32;31.62;100054.17;1630441;85;21100;-71
2022/05/03 10:42:03;;;;;;;4.97;1.95;;;;;;;22.47;30.62;100058.81;1639182;84;21212;-71
2022/05/03 10:44:48;;;;;;;3.60;1.80;;;;;;;22.57;30.51;100047.11;1628482;86;21155;-71
2022/05/03 10:47:21;;;;;;;3.98;1.80;;;;;;;22.57;30.60;100047.11;1643590;84;22020;-70
2022/05/03 10:50:17;;;;;;;3.45;1.72;;;;;;;22.67;29.92;100043.48;1657370;84;21040;-71
2022/05/03 10:52:47;;;;;;;4.17;1.60;;;;;;;22.79;27.69;100040.48;1628282;84;21321;-71
2022/05/03 10:55:15;;;;;;;5.78;1.67;;;;;;;22.84;29.25;100036.66;1596325;87;21078;-70
2022/05/03 10:58:26;;;;;;;3.33;1.65;;;;;;;22.93;27.55;100038.62;1656562;85;21067;-71
2022/05/03 11:01:17;;;;;;;2.40;1.70;;;;;;;22.95;28.56;100034.36;1621625;86;21855;-72
2022/05/03 11:04:01;;;;;;;3.77;1.50;;;;;;;23.04;27.21;100029.06;1646965;84;21519;-72
2022/05/03 11:06:32;;;;;;;2.83;1.70;;;;;;;22.85;27.25;100024.85;1645941;84;21530;-72
2022/05/03 11:11:46;;;;;;;3.98;1.95;;;;;;;22.18;28.76;100024.55;1638845;84;21092;-72
2022/05/03 11:14:22;;;;;;;4.40;1.85;;;;;;;22.19;30.83;100018.64;1654360;84;21863;-73
2022/05/03 11:17:05;;;;;;;5.83;2.00;;;;;;;22.50;30.37;100013.49;1670184;84;21111;-73
2022/05/03 11:19:37;;;;;;;3.52;1.60;;;;;;;22.89;29.83;100013.68;1658271;84;21519;-72
2022/05/03 11:22:10;;;;;;;7.20;1.80;;;;;;;23.26;29.20;100002.17;1669234;84;21107;-75
2022/05/03 11:24:46;;;;;;;9.38;2.20;;;;;;;23.41;28.61;99995.97;1667989;84;21533;-75
2022/05/03 11:27:14;;;;;;;6.70;1.70;;;;;;;23.43;28.18;99999.27;1659639;84;22641;-75
2022/05/03 11:29:47;;;;;;;5.72;1.87;;;;;;;23.45;27.68;99995.53;1655526;86;21447;-74
2022/05/03 11:32:15;;;;;;;6.65;1.75;;;;;;;23.39;27.85;99996.71;1625805;85;21121;-73
2022/05/03 11:34:43;;;;;;;2.90;1.55;;;;;;;23.48;27.53;100000.52;1642711;85;21330;-74
2022/05/03 11:37:10;;;;;;;6.15;1.72;;;;;;;23.40;26.95;99997.53;1624563;85;21123;-76
2022/05/03 11:39:37;;;;;;;3.62;1.50;;;;;;;23.08;27.39;99989.38;1662853;84;21929;-76
2022/05/03 11:42:10;;;;;;;2.87;1.60;;;;;;;23.15;27.67;99986.64;1657179;84;21151;-75
2022/05/03 11:44:46;;;;;;;2.72;1.55;;;;;;;23.37;28.46;99978.59;1647250;84;21052;-77
2022/05/03 11:47:11;;;;;;;4.53;1.60;;;;;;;23.71;26.94;99972.51;1656003;85;21093;-75
2022/05/03 11:49:39;;;;;;;4.28;1.75;;;;;;;23.81;27.54;99968.81;1654691;84;21092;-76
2022/05/03 11:57:43;;;;;;;4.45;1.67;;;;;;;23.98;26.53;99958.32;1658013;84;21075;-72
2022/05/03 12:00:13;;;;;;;4.95;1.70;;;;;;;24.25;26.35;99961.11;1638014;84;21051;-72
2022/05/03 12:02:44;;;;;;;4.70;1.50;;;;;;;24.59;26.39;99953.54;1641366;84;21052;-73
2022/05/03 12:05:20;;;;;;;5.37;1.70;;;;;;;24.69;24.81;99957.08;1656974;85;21765;-72
2022/05/03 12:07:55;;;;;;;2.17;1.45;;;;;;;24.52;25.37;99953.63;1651409;85;21048;-74
2022/05/03 12:10:34;;;;;;;4.80;1.77;;;;;;;24.68;26.51;99954.08;1648920;84;21060;-73
2022/05/03 12:13:13;;;;;;;4.47;1.40;;;;;;;24.96;25.07;99952.21;1652589;84;21179;-71
2022/05/03 12:16:00;;;;;;;3.37;1.25;;;;;;;25.16;25.88;99946.06;1666011;85;21333;-72
2022/05/03 12:18:37;;;;;;;3.02;1.50;;;;;;;25.26;25.39;99943.64;1653180;85;21854;-71
2022/05/03 12:21:20;;;;;;;4.72;2.00;;;;;;;25.37;25.46;99946.92;1649154;84;21475;-71
2022/05/03 12:23:49;;;;;;;5.12;1.57;;;;;;;25.48;24.68;99935.88;1602419;87;21099;-70
2022/05/03 12:26:27;;;;;;;3.83;1.72;;;;;;;25.59;24.75;99931.03;1667389;85;21575;-71
2022/05/03 12:28:57;;;;;;;4.45;1.50;;;;;;;25.55;24.57;99924.95;1659291;84;21111;-71
2022/05/03 12:31:35;;;;;;;2.35;1.40;;;;;;;25.50;24.79;99921.59;1679942;84;21868;-72
2022/05/03 12:34:01;;;;;;;5.87;1.60;;;;;;;25.57;25.20;99921.48;1666947;84;21067;-72
2022/05/03 12:36:40;;;;;;;3.40;1.80;;;;;;;25.71;24.75;99924.86;1652647;84;21072;-71